sensor_id;sensor_type;location;lat;lon;timestamp;P1;durP1;ratioP1;P2;durP2;ratioP2
49015;SDS011;34830;44.064;12.566;2022-07-23T00:02:09;8.55;;;2.88;;
49015;SDS011;34830;44.064;12.566;2022-07-23T00:04:35;9.05;;;3.03;;
49015;SDS011;34830;44.064;12.566;2022-07-23T00:07:01;8.60;;;2.92;;
49015;SDS011;34830;44.064;12.566;2022-07-23T00:09:28;5.15;;;2.50;;
49015;SDS011;34830;44.064;12.566;2022-07-23T00:11:56;7.97;;;2.97;;
49015;SDS011;34830;44.064;12.566;2022-07-23T00:14:22;11.20;;;2.72;;
49015;SDS011;34830;44.064;12.566;2022-07-23T00:16:48;12.25;;;3.05;;
49015;SDS011;34830;44.064;12.566;2022-07-23T00:19:15;7.88;;;2.75;;
49015;SDS011;34830;44.064;12.566;2022-07-23T00:21:41;7.28;;;3.05;;
49015;SDS011;34830;44.064;12.566;2022-07-23T00:24:07;6.18;;;2.97;;
49015;SDS011;34830;44.064;12.566;2022-07-23T00:26:33;7.85;;;2.50;;
49015;SDS011;34830;44.064;12.566;2022-07-23T00:28:59;10.88;;;2.92;;
49015;SDS011;34830;44.064;12.566;2022-07-23T00:31:25;9.35;;;3.03;;
49015;SDS011;34830;44.064;12.566;2022-07-23T00:33:54;12.07;;;2.88;;
49015;SDS011;34830;44.064;12.566;2022-07-23T00:36:23;8.95;;;3.28;;
49015;SDS011;34830;44.064;12.566;2022-07-23T00:38:49;6.70;;;2.60;;
49015;SDS011;34830;44.064;12.566;2022-07-23T00:41:15;10.02;;;2.80;;
49015;SDS011;34830;44.064;12.566;2022-07-23T00:43:41;10.00;;;3.20;;
49015;SDS011;34830;44.064;12.566;2022-07-23T00:46:08;7.15;;;3.08;;
49015;SDS011;34830;44.064;12.566;2022-07-23T00:48:34;5.72;;;2.85;;
49015;SDS011;34830;44.064;12.566;2022-07-23T00:51:00;7.38;;;2.67;;
49015;SDS011;34830;44.064;12.566;2022-07-23T00:53:26;7.13;;;2.97;;
49015;SDS011;34830;44.064;12.566;2022-07-23T00:55:53;8.02;;;2.20;;
49015;SDS011;34830;44.064;12.566;2022-07-23T00:58:20;9.35;;;3.15;;
49015;SDS011;34830;44.064;12.566;2022-07-23T01:00:46;11.95;;;3.17;;
49015;SDS011;34830;44.064;12.566;2022-07-23T01:03:12;5.93;;;2.80;;
49015;SDS011;34830;44.064;12.566;2022-07-23T01:05:38;5.53;;;2.70;;
49015;SDS011;34830;44.064;12.566;2022-07-23T01:08:05;6.18;;;2.30;;
49015;SDS011;34830;44.064;12.566;2022-07-23T01:10:31;6.93;;;2.70;;
49015;SDS011;34830;44.064;12.566;2022-07-23T01:13:03;8.63;;;2.78;;
49015;SDS011;34830;44.064;12.566;2022-07-23T01:15:34;6.00;;;2.63;;
49015;SDS011;34830;44.064;12.566;2022-07-23T01:18:01;7.15;;;3.15;;
49015;SDS011;34830;44.064;12.566;2022-07-23T01:20:29;7.13;;;3.15;;
49015;SDS011;34830;44.064;12.566;2022-07-23T01:22:56;7.05;;;2.97;;
49015;SDS011;34830;44.064;12.566;2022-07-23T01:25:22;6.60;;;2.80;;
49015;SDS011;34830;44.064;12.566;2022-07-23T01:27:58;8.38;;;2.65;;
49015;SDS011;34830;44.064;12.566;2022-07-23T01:30:24;6.20;;;2.33;;
49015;SDS011;34830;44.064;12.566;2022-07-23T01:32:50;6.38;;;2.78;;
49015;SDS011;34830;44.064;12.566;2022-07-23T01:35:16;12.15;;;3.25;;
49015;SDS011;34830;44.064;12.566;2022-07-23T01:37:43;6.13;;;3.00;;
49015;SDS011;34830;44.064;12.566;2022-07-23T01:40:10;9.32;;;2.67;;
49015;SDS011;34830;44.064;12.566;2022-07-23T01:42:36;8.43;;;2.80;;
49015;SDS011;34830;44.064;12.566;2022-07-23T01:45:04;4.30;;;2.63;;
49015;SDS011;34830;44.064;12.566;2022-07-23T01:47:31;6.57;;;2.80;;
49015;SDS011;34830;44.064;12.566;2022-07-23T01:49:58;6.32;;;3.10;;
49015;SDS011;34830;44.064;12.566;2022-07-23T01:52:47;5.88;;;2.22;;
49015;SDS011;34830;44.064;12.566;2022-07-23T01:55:13;6.22;;;3.00;;
49015;SDS011;34830;44.064;12.566;2022-07-23T01:57:42;7.03;;;2.90;;
49015;SDS011;34830;44.064;12.566;2022-07-23T02:00:09;8.88;;;2.65;;
49015;SDS011;34830;44.064;12.566;2022-07-23T02:02:39;7.15;;;2.80;;
49015;SDS011;34830;44.064;12.566;2022-07-23T02:05:05;6.38;;;2.80;;
49015;SDS011;34830;44.064;12.566;2022-07-23T02:07:31;8.32;;;3.80;;
49015;SDS011;34830;44.064;12.566;2022-07-23T02:09:59;10.90;;;2.80;;
49015;SDS011;34830;44.064;12.566;2022-07-23T02:12:25;7.95;;;2.58;;
49015;SDS011;34830;44.064;12.566;2022-07-23T02:14:51;6.93;;;2.20;;
49015;SDS011;34830;44.064;12.566;2022-07-23T02:17:17;8.32;;;3.13;;
49015;SDS011;34830;44.064;12.566;2022-07-23T02:19:43;5.47;;;2.40;;
49015;SDS011;34830;44.064;12.566;2022-07-23T02:22:09;4.85;;;2.42;;
49015;SDS011;34830;44.064;12.566;2022-07-23T02:24:35;12.63;;;3.45;;
49015;SDS011;34830;44.064;12.566;2022-07-23T02:27:01;10.63;;;3.00;;
49015;SDS011;34830;44.064;12.566;2022-07-23T02:29:27;7.13;;;2.78;;
49015;SDS011;34830;44.064;12.566;2022-07-23T02:31:54;6.72;;;2.83;;
49015;SDS011;34830;44.064;12.566;2022-07-23T02:34:20;10.73;;;2.58;;
49015;SDS011;34830;44.064;12.566;2022-07-23T02:36:46;9.98;;;3.05;;
49015;SDS011;34830;44.064;12.566;2022-07-23T02:39:12;11.13;;;2.72;;
49015;SDS011;34830;44.064;12.566;2022-07-23T02:41:40;5.72;;;2.58;;
49015;SDS011;34830;44.064;12.566;2022-07-23T02:44:07;6.15;;;2.65;;
49015;SDS011;34830;44.064;12.566;2022-07-23T02:46:34;8.07;;;3.42;;
49015;SDS011;34830;44.064;12.566;2022-07-23T02:49:01;10.45;;;4.00;;
49015;SDS011;34830;44.064;12.566;2022-07-23T02:51:30;10.15;;;2.72;;
49015;SDS011;34830;44.064;12.566;2022-07-23T02:54:01;7.40;;;2.85;;
49015;SDS011;34830;44.064;12.566;2022-07-23T02:56:27;6.53;;;3.30;;
49015;SDS011;34830;44.064;12.566;2022-07-23T02:58:53;6.50;;;3.03;;
49015;SDS011;34830;44.064;12.566;2022-07-23T03:01:20;5.45;;;2.65;;
49015;SDS011;34830;44.064;12.566;2022-07-23T03:03:46;6.07;;;3.25;;
49015;SDS011;34830;44.064;12.566;2022-07-23T03:06:12;3.90;;;2.65;;
49015;SDS011;34830;44.064;12.566;2022-07-23T03:08:40;9.63;;;3.30;;
49015;SDS011;34830;44.064;12.566;2022-07-23T03:11:06;5.40;;;2.92;;
49015;SDS011;34830;44.064;12.566;2022-07-23T03:16:04;5.65;;;3.08;;
49015;SDS011;34830;44.064;12.566;2022-07-23T03:18:30;9.55;;;3.20;;
49015;SDS011;34830;44.064;12.566;2022-07-23T03:20:56;6.38;;;3.72;;
49015;SDS011;34830;44.064;12.566;2022-07-23T03:23:22;6.85;;;2.75;;
49015;SDS011;34830;44.064;12.566;2022-07-23T03:25:49;10.85;;;3.22;;
49015;SDS011;34830;44.064;12.566;2022-07-23T03:28:15;6.47;;;3.15;;
49015;SDS011;34830;44.064;12.566;2022-07-23T03:30:45;6.63;;;2.85;;
49015;SDS011;34830;44.064;12.566;2022-07-23T03:33:15;9.82;;;7.85;;
49015;SDS011;34830;44.064;12.566;2022-07-23T03:35:43;7.72;;;3.38;;
49015;SDS011;34830;44.064;12.566;2022-07-23T03:38:17;6.35;;;2.95;;
49015;SDS011;34830;44.064;12.566;2022-07-23T03:40:43;8.75;;;3.70;;
49015;SDS011;34830;44.064;12.566;2022-07-23T03:43:09;7.82;;;2.75;;
49015;SDS011;34830;44.064;12.566;2022-07-23T03:45:36;5.72;;;3.42;;
49015;SDS011;34830;44.064;12.566;2022-07-23T03:48:02;9.85;;;3.67;;
49015;SDS011;34830;44.064;12.566;2022-07-23T03:50:28;8.85;;;4.45;;
49015;SDS011;34830;44.064;12.566;2022-07-23T03:52:55;7.38;;;3.95;;
49015;SDS011;34830;44.064;12.566;2022-07-23T03:55:21;5.95;;;4.22;;
49015;SDS011;34830;44.064;12.566;2022-07-23T03:57:48;8.13;;;3.83;;
49015;SDS011;34830;44.064;12.566;2022-07-23T04:00:14;7.35;;;3.47;;
49015;SDS011;34830;44.064;12.566;2022-07-23T04:02:41;14.32;;;3.80;;
49015;SDS011;34830;44.064;12.566;2022-07-23T04:05:08;8.15;;;3.67;;
49015;SDS011;34830;44.064;12.566;2022-07-23T04:07:34;10.25;;;4.00;;
49015;SDS011;34830;44.064;12.566;2022-07-23T04:10:01;5.95;;;4.18;;
49015;SDS011;34830;44.064;12.566;2022-07-23T04:12:27;7.82;;;4.05;;
49015;SDS011;34830;44.064;12.566;2022-07-23T04:14:53;7.10;;;4.00;;
49015;SDS011;34830;44.064;12.566;2022-07-23T04:17:19;9.15;;;4.07;;
49015;SDS011;34830;44.064;12.566;2022-07-23T04:19:45;12.43;;;4.20;;
49015;SDS011;34830;44.064;12.566;2022-07-23T04:22:15;13.02;;;3.90;;
49015;SDS011;34830;44.064;12.566;2022-07-23T04:24:41;8.98;;;3.90;;
49015;SDS011;34830;44.064;12.566;2022-07-23T04:27:08;10.23;;;4.20;;
49015;SDS011;34830;44.064;12.566;2022-07-23T04:29:35;7.45;;;4.45;;
49015;SDS011;34830;44.064;12.566;2022-07-23T04:32:01;10.80;;;4.10;;
49015;SDS011;34830;44.064;12.566;2022-07-23T04:34:27;9.00;;;3.92;;
49015;SDS011;34830;44.064;12.566;2022-07-23T04:36:54;7.28;;;3.90;;
49015;SDS011;34830;44.064;12.566;2022-07-23T04:39:20;8.30;;;4.13;;
49015;SDS011;34830;44.064;12.566;2022-07-23T04:41:46;7.72;;;4.43;;
49015;SDS011;34830;44.064;12.566;2022-07-23T04:44:13;7.70;;;5.90;;
49015;SDS011;34830;44.064;12.566;2022-07-23T04:46:41;7.22;;;4.28;;
49015;SDS011;34830;44.064;12.566;2022-07-23T04:49:08;10.57;;;4.13;;
49015;SDS011;34830;44.064;12.566;2022-07-23T04:51:34;7.63;;;4.07;;
49015;SDS011;34830;44.064;12.566;2022-07-23T04:54:00;9.18;;;4.90;;
49015;SDS011;34830;44.064;12.566;2022-07-23T04:56:26;11.43;;;4.63;;
49015;SDS011;34830;44.064;12.566;2022-07-23T04:58:52;10.40;;;4.40;;
49015;SDS011;34830;44.064;12.566;2022-07-23T05:01:19;10.07;;;5.72;;
49015;SDS011;34830;44.064;12.566;2022-07-23T05:03:45;10.10;;;4.53;;
49015;SDS011;34830;44.064;12.566;2022-07-23T05:06:14;12.23;;;4.38;;
49015;SDS011;34830;44.064;12.566;2022-07-23T05:08:41;12.95;;;4.72;;
49015;SDS011;34830;44.064;12.566;2022-07-23T05:11:09;8.88;;;4.18;;
49015;SDS011;34830;44.064;12.566;2022-07-23T05:13:35;10.38;;;3.75;;
49015;SDS011;34830;44.064;12.566;2022-07-23T05:16:01;8.13;;;4.90;;
49015;SDS011;34830;44.064;12.566;2022-07-23T05:18:27;12.27;;;4.55;;
49015;SDS011;34830;44.064;12.566;2022-07-23T05:20:54;11.73;;;4.38;;
49015;SDS011;34830;44.064;12.566;2022-07-23T05:23:22;9.45;;;3.90;;
49015;SDS011;34830;44.064;12.566;2022-07-23T05:25:49;8.88;;;4.35;;
49015;SDS011;34830;44.064;12.566;2022-07-23T05:28:16;8.10;;;4.50;;
49015;SDS011;34830;44.064;12.566;2022-07-23T05:30:42;13.32;;;4.60;;
49015;SDS011;34830;44.064;12.566;2022-07-23T05:33:12;13.65;;;4.30;;
49015;SDS011;34830;44.064;12.566;2022-07-23T05:35:40;9.93;;;4.85;;
49015;SDS011;34830;44.064;12.566;2022-07-23T05:38:20;11.25;;;4.63;;
49015;SDS011;34830;44.064;12.566;2022-07-23T05:40:47;10.65;;;4.43;;
49015;SDS011;34830;44.064;12.566;2022-07-23T05:43:13;9.85;;;4.90;;
49015;SDS011;34830;44.064;12.566;2022-07-23T05:45:39;9.90;;;4.28;;
49015;SDS011;34830;44.064;12.566;2022-07-23T05:48:05;11.02;;;5.25;;
49015;SDS011;34830;44.064;12.566;2022-07-23T05:50:38;9.40;;;4.13;;
49015;SDS011;34830;44.064;12.566;2022-07-23T05:53:13;12.68;;;4.55;;
49015;SDS011;34830;44.064;12.566;2022-07-23T05:55:52;10.93;;;4.57;;
49015;SDS011;34830;44.064;12.566;2022-07-23T05:58:19;12.65;;;5.07;;
49015;SDS011;34830;44.064;12.566;2022-07-23T06:00:46;11.75;;;4.38;;
49015;SDS011;34830;44.064;12.566;2022-07-23T06:03:13;15.80;;;5.20;;
49015;SDS011;34830;44.064;12.566;2022-07-23T06:05:39;8.02;;;4.63;;
49015;SDS011;34830;44.064;12.566;2022-07-23T06:08:05;9.90;;;4.38;;
49015;SDS011;34830;44.064;12.566;2022-07-23T06:10:32;12.85;;;4.50;;
49015;SDS011;34830;44.064;12.566;2022-07-23T06:12:58;16.15;;;4.53;;
49015;SDS011;34830;44.064;12.566;2022-07-23T06:15:24;7.78;;;3.92;;
49015;SDS011;34830;44.064;12.566;2022-07-23T06:17:51;9.90;;;3.53;;
49015;SDS011;34830;44.064;12.566;2022-07-23T06:20:17;6.65;;;3.22;;
49015;SDS011;34830;44.064;12.566;2022-07-23T06:22:43;5.07;;;3.33;;
49015;SDS011;34830;44.064;12.566;2022-07-23T06:25:11;8.48;;;3.45;;
49015;SDS011;34830;44.064;12.566;2022-07-23T06:27:37;9.45;;;4.00;;
49015;SDS011;34830;44.064;12.566;2022-07-23T06:30:03;12.85;;;3.83;;
49015;SDS011;34830;44.064;12.566;2022-07-23T06:32:30;8.00;;;3.42;;
49015;SDS011;34830;44.064;12.566;2022-07-23T06:34:56;8.55;;;3.55;;
49015;SDS011;34830;44.064;12.566;2022-07-23T06:37:29;10.73;;;3.05;;
49015;SDS011;34830;44.064;12.566;2022-07-23T06:42:36;9.52;;;4.00;;
49015;SDS011;34830;44.064;12.566;2022-07-23T06:45:05;6.43;;;3.50;;
49015;SDS011;34830;44.064;12.566;2022-07-23T06:47:33;6.90;;;3.63;;
49015;SDS011;34830;44.064;12.566;2022-07-23T06:50:00;9.73;;;3.42;;
49015;SDS011;34830;44.064;12.566;2022-07-23T06:52:26;13.63;;;3.90;;
49015;SDS011;34830;44.064;12.566;2022-07-23T06:54:52;7.95;;;3.58;;
49015;SDS011;34830;44.064;12.566;2022-07-23T06:57:18;9.40;;;4.07;;
49015;SDS011;34830;44.064;12.566;2022-07-23T06:59:45;13.15;;;3.95;;
49015;SDS011;34830;44.064;12.566;2022-07-23T07:02:11;9.70;;;3.60;;
49015;SDS011;34830;44.064;12.566;2022-07-23T07:04:37;6.03;;;3.70;;
49015;SDS011;34830;44.064;12.566;2022-07-23T07:07:03;6.13;;;3.60;;
49015;SDS011;34830;44.064;12.566;2022-07-23T07:09:29;10.85;;;3.40;;
49015;SDS011;34830;44.064;12.566;2022-07-23T07:11:55;4.47;;;3.22;;
49015;SDS011;34830;44.064;12.566;2022-07-23T07:14:22;7.93;;;3.42;;
49015;SDS011;34830;44.064;12.566;2022-07-23T07:16:48;5.88;;;3.28;;
49015;SDS011;34830;44.064;12.566;2022-07-23T07:19:14;7.05;;;3.80;;
49015;SDS011;34830;44.064;12.566;2022-07-23T07:21:40;9.43;;;3.20;;
49015;SDS011;34830;44.064;12.566;2022-07-23T07:24:07;11.32;;;3.70;;
49015;SDS011;34830;44.064;12.566;2022-07-23T07:26:33;9.98;;;3.78;;
49015;SDS011;34830;44.064;12.566;2022-07-23T07:28:59;9.25;;;4.45;;
49015;SDS011;34830;44.064;12.566;2022-07-23T07:31:25;10.93;;;3.72;;
49015;SDS011;34830;44.064;12.566;2022-07-23T07:33:51;13.13;;;4.10;;
49015;SDS011;34830;44.064;12.566;2022-07-23T07:36:17;12.23;;;3.85;;
49015;SDS011;34830;44.064;12.566;2022-07-23T07:38:43;9.50;;;3.75;;
49015;SDS011;34830;44.064;12.566;2022-07-23T07:41:10;12.23;;;4.10;;
49015;SDS011;34830;44.064;12.566;2022-07-23T07:43:36;8.38;;;3.88;;
49015;SDS011;34830;44.064;12.566;2022-07-23T07:46:03;9.88;;;3.35;;
49015;SDS011;34830;44.064;12.566;2022-07-23T07:48:29;7.13;;;3.50;;
49015;SDS011;34830;44.064;12.566;2022-07-23T07:50:55;10.75;;;3.70;;
49015;SDS011;34830;44.064;12.566;2022-07-23T07:53:21;9.73;;;4.55;;
49015;SDS011;34830;44.064;12.566;2022-07-23T07:55:48;21.42;;;4.68;;
49015;SDS011;34830;44.064;12.566;2022-07-23T07:58:14;11.45;;;4.07;;
49015;SDS011;34830;44.064;12.566;2022-07-23T08:00:40;12.00;;;4.68;;
49015;SDS011;34830;44.064;12.566;2022-07-23T08:03:06;7.97;;;3.25;;
49015;SDS011;34830;44.064;12.566;2022-07-23T08:05:32;9.10;;;3.47;;
49015;SDS011;34830;44.064;12.566;2022-07-23T08:07:58;10.95;;;3.45;;
49015;SDS011;34830;44.064;12.566;2022-07-23T08:10:25;15.45;;;3.42;;
49015;SDS011;34830;44.064;12.566;2022-07-23T08:12:53;12.50;;;3.60;;
49015;SDS011;34830;44.064;12.566;2022-07-23T08:15:22;7.78;;;3.25;;
49015;SDS011;34830;44.064;12.566;2022-07-23T08:17:48;7.88;;;4.18;;
49015;SDS011;34830;44.064;12.566;2022-07-23T08:20:17;12.68;;;3.80;;
49015;SDS011;34830;44.064;12.566;2022-07-23T08:25:21;7.68;;;3.40;;
49015;SDS011;34830;44.064;12.566;2022-07-23T08:27:52;10.38;;;3.65;;
49015;SDS011;34830;44.064;12.566;2022-07-23T08:30:18;8.18;;;3.42;;
49015;SDS011;34830;44.064;12.566;2022-07-23T08:33:05;7.97;;;3.63;;
49015;SDS011;34830;44.064;12.566;2022-07-23T08:35:43;6.55;;;3.03;;
49015;SDS011;34830;44.064;12.566;2022-07-23T08:40:40;7.20;;;3.05;;
49015;SDS011;34830;44.064;12.566;2022-07-23T08:43:12;7.60;;;3.38;;
49015;SDS011;34830;44.064;12.566;2022-07-23T08:45:40;8.68;;;3.03;;
49015;SDS011;34830;44.064;12.566;2022-07-23T08:48:19;9.10;;;3.47;;
49015;SDS011;34830;44.064;12.566;2022-07-23T08:50:47;11.15;;;3.63;;
49015;SDS011;34830;44.064;12.566;2022-07-23T08:53:15;9.32;;;3.55;;
49015;SDS011;34830;44.064;12.566;2022-07-23T08:55:49;9.80;;;3.70;;
49015;SDS011;34830;44.064;12.566;2022-07-23T08:58:16;10.60;;;3.15;;
49015;SDS011;34830;44.064;12.566;2022-07-23T09:00:43;8.75;;;3.47;;
49015;SDS011;34830;44.064;12.566;2022-07-23T09:03:16;7.78;;;3.67;;
49015;SDS011;34830;44.064;12.566;2022-07-23T09:05:44;13.95;;;4.50;;
49015;SDS011;34830;44.064;12.566;2022-07-23T09:08:39;8.27;;;3.30;;
49015;SDS011;34830;44.064;12.566;2022-07-23T09:11:07;5.47;;;3.10;;
49015;SDS011;34830;44.064;12.566;2022-07-23T09:16:10;10.15;;;3.20;;
49015;SDS011;34830;44.064;12.566;2022-07-23T09:21:11;13.10;;;3.88;;
49015;SDS011;34830;44.064;12.566;2022-07-23T09:26:22;9.93;;;4.70;;
49015;SDS011;34830;44.064;12.566;2022-07-23T09:28:57;8.25;;;3.85;;
49015;SDS011;34830;44.064;12.566;2022-07-23T09:31:27;8.70;;;4.50;;
49015;SDS011;34830;44.064;12.566;2022-07-23T09:34:12;19.38;;;5.80;;
49015;SDS011;34830;44.064;12.566;2022-07-23T09:36:41;14.27;;;5.78;;
49015;SDS011;34830;44.064;12.566;2022-07-23T09:39:11;9.13;;;4.43;;
49015;SDS011;34830;44.064;12.566;2022-07-23T09:41:45;13.70;;;4.88;;
49015;SDS011;34830;44.064;12.566;2022-07-23T09:44:13;8.93;;;4.00;;
49015;SDS011;34830;44.064;12.566;2022-07-23T09:46:44;12.77;;;4.40;;
49015;SDS011;34830;44.064;12.566;2022-07-23T09:49:14;9.02;;;3.55;;
49015;SDS011;34830;44.064;12.566;2022-07-23T09:51:43;10.90;;;4.82;;
49015;SDS011;34830;44.064;12.566;2022-07-23T09:54:21;13.80;;;4.63;;
49015;SDS011;34830;44.064;12.566;2022-07-23T09:56:48;12.80;;;4.28;;
49015;SDS011;34830;44.064;12.566;2022-07-23T09:59:15;8.35;;;3.83;;
49015;SDS011;34830;44.064;12.566;2022-07-23T10:01:43;15.38;;;4.00;;
49015;SDS011;34830;44.064;12.566;2022-07-23T10:04:13;8.55;;;4.10;;
49015;SDS011;34830;44.064;12.566;2022-07-23T10:06:59;7.43;;;3.90;;
49015;SDS011;34830;44.064;12.566;2022-07-23T10:09:45;11.40;;;4.50;;
49015;SDS011;34830;44.064;12.566;2022-07-23T10:12:33;10.00;;;4.47;;
49015;SDS011;34830;44.064;12.566;2022-07-23T10:15:15;11.80;;;3.67;;
49015;SDS011;34830;44.064;12.566;2022-07-23T10:17:41;9.52;;;4.93;;
49015;SDS011;34830;44.064;12.566;2022-07-23T10:20:08;7.30;;;3.95;;
49015;SDS011;34830;44.064;12.566;2022-07-23T10:22:38;13.18;;;4.28;;
49015;SDS011;34830;44.064;12.566;2022-07-23T10:25:10;9.55;;;3.90;;
49015;SDS011;34830;44.064;12.566;2022-07-23T10:36:12;13.88;;;4.95;;
49015;SDS011;34830;44.064;12.566;2022-07-23T10:41:38;11.90;;;4.50;;
49015;SDS011;34830;44.064;12.566;2022-07-23T10:44:08;13.00;;;4.22;;
49015;SDS011;34830;44.064;12.566;2022-07-23T10:49:53;9.77;;;4.53;;
49015;SDS011;34830;44.064;12.566;2022-07-23T10:54:50;13.20;;;5.07;;
49015;SDS011;34830;44.064;12.566;2022-07-23T10:57:47;9.15;;;4.47;;
49015;SDS011;34830;44.064;12.566;2022-07-23T11:00:24;11.90;;;4.05;;
49015;SDS011;34830;44.064;12.566;2022-07-23T11:02:52;16.35;;;5.20;;
49015;SDS011;34830;44.064;12.566;2022-07-23T11:05:23;9.77;;;4.45;;
49015;SDS011;34830;44.064;12.566;2022-07-23T11:10:40;5.18;;;4.07;;
49015;SDS011;34830;44.064;12.566;2022-07-23T11:21:48;12.95;;;4.20;;
49015;SDS011;34830;44.064;12.566;2022-07-23T11:37:12;9.88;;;4.30;;
49015;SDS011;34830;44.064;12.566;2022-07-23T11:40:12;12.82;;;4.32;;
49015;SDS011;34830;44.064;12.566;2022-07-23T11:43:00;7.20;;;3.80;;
49015;SDS011;34830;44.064;12.566;2022-07-23T11:45:35;8.70;;;5.03;;
49015;SDS011;34830;44.064;12.566;2022-07-23T11:48:22;12.27;;;4.38;;
49015;SDS011;34830;44.064;12.566;2022-07-23T11:50:50;9.70;;;4.15;;
49015;SDS011;34830;44.064;12.566;2022-07-23T11:53:27;10.20;;;4.90;;
49015;SDS011;34830;44.064;12.566;2022-07-23T11:56:07;6.47;;;4.43;;
49015;SDS011;34830;44.064;12.566;2022-07-23T11:58:35;10.40;;;4.30;;
49015;SDS011;34830;44.064;12.566;2022-07-23T12:01:03;10.98;;;4.80;;
49015;SDS011;34830;44.064;12.566;2022-07-23T12:03:29;10.82;;;5.03;;
49015;SDS011;34830;44.064;12.566;2022-07-23T12:05:56;12.02;;;4.72;;
49015;SDS011;34830;44.064;12.566;2022-07-23T12:08:23;10.15;;;4.15;;
49015;SDS011;34830;44.064;12.566;2022-07-23T12:10:49;11.90;;;4.43;;
49015;SDS011;34830;44.064;12.566;2022-07-23T12:13:19;9.25;;;4.55;;
49015;SDS011;34830;44.064;12.566;2022-07-23T12:15:50;7.72;;;4.35;;
49015;SDS011;34830;44.064;12.566;2022-07-23T12:18:19;16.17;;;5.00;;
49015;SDS011;34830;44.064;12.566;2022-07-23T12:20:47;8.35;;;4.30;;
49015;SDS011;34830;44.064;12.566;2022-07-23T12:23:15;6.72;;;4.90;;
49015;SDS011;34830;44.064;12.566;2022-07-23T12:25:44;11.57;;;4.90;;
49015;SDS011;34830;44.064;12.566;2022-07-23T12:28:12;7.05;;;4.32;;
49015;SDS011;34830;44.064;12.566;2022-07-23T12:30:40;8.00;;;4.47;;
49015;SDS011;34830;44.064;12.566;2022-07-23T12:33:14;8.95;;;4.60;;
49015;SDS011;34830;44.064;12.566;2022-07-23T12:35:47;8.25;;;4.15;;
49015;SDS011;34830;44.064;12.566;2022-07-23T12:38:15;8.40;;;4.22;;
49015;SDS011;34830;44.064;12.566;2022-07-23T12:40:50;8.65;;;4.60;;
49015;SDS011;34830;44.064;12.566;2022-07-23T12:48:39;11.85;;;4.80;;
49015;SDS011;34830;44.064;12.566;2022-07-23T12:51:30;7.60;;;4.15;;
49015;SDS011;34830;44.064;12.566;2022-07-23T12:54:07;9.38;;;4.30;;
49015;SDS011;34830;44.064;12.566;2022-07-23T12:56:36;7.20;;;3.88;;
49015;SDS011;34830;44.064;12.566;2022-07-23T13:01:34;15.15;;;4.22;;
49015;SDS011;34830;44.064;12.566;2022-07-23T13:04:02;6.40;;;4.10;;
49015;SDS011;34830;44.064;12.566;2022-07-23T13:06:30;8.02;;;4.95;;
49015;SDS011;34830;44.064;12.566;2022-07-23T13:09:01;7.60;;;4.55;;
49015;SDS011;34830;44.064;12.566;2022-07-23T13:11:28;6.85;;;4.53;;
49015;SDS011;34830;44.064;12.566;2022-07-23T13:13:55;8.40;;;4.05;;
49015;SDS011;34830;44.064;12.566;2022-07-23T13:16:21;7.15;;;4.50;;
49015;SDS011;34830;44.064;12.566;2022-07-23T13:18:47;17.75;;;5.10;;
49015;SDS011;34830;44.064;12.566;2022-07-23T13:21:13;8.55;;;4.28;;
49015;SDS011;34830;44.064;12.566;2022-07-23T13:23:40;8.32;;;3.92;;
49015;SDS011;34830;44.064;12.566;2022-07-23T13:26:07;9.38;;;4.18;;
49015;SDS011;34830;44.064;12.566;2022-07-23T13:28:34;6.68;;;4.00;;
49015;SDS011;34830;44.064;12.566;2022-07-23T13:31:00;7.03;;;4.47;;
49015;SDS011;34830;44.064;12.566;2022-07-23T13:33:26;9.43;;;3.75;;
49015;SDS011;34830;44.064;12.566;2022-07-23T13:35:52;5.80;;;3.47;;
49015;SDS011;34830;44.064;12.566;2022-07-23T13:38:19;8.52;;;3.50;;
49015;SDS011;34830;44.064;12.566;2022-07-23T13:40:47;9.07;;;4.20;;
49015;SDS011;34830;44.064;12.566;2022-07-23T13:43:16;5.60;;;3.70;;
49015;SDS011;34830;44.064;12.566;2022-07-23T13:45:43;11.45;;;4.65;;
49015;SDS011;34830;44.064;12.566;2022-07-23T13:48:10;8.75;;;4.55;;
49015;SDS011;34830;44.064;12.566;2022-07-23T13:50:38;11.38;;;4.72;;
49015;SDS011;34830;44.064;12.566;2022-07-23T13:53:06;9.43;;;3.70;;
49015;SDS011;34830;44.064;12.566;2022-07-23T13:55:37;7.43;;;4.07;;
49015;SDS011;34830;44.064;12.566;2022-07-23T13:58:04;8.15;;;3.72;;
49015;SDS011;34830;44.064;12.566;2022-07-23T14:00:31;9.90;;;3.72;;
49015;SDS011;34830;44.064;12.566;2022-07-23T14:02:59;11.73;;;4.05;;
49015;SDS011;34830;44.064;12.566;2022-07-23T14:05:27;8.30;;;4.45;;
49015;SDS011;34830;44.064;12.566;2022-07-23T14:07:53;9.13;;;3.72;;
49015;SDS011;34830;44.064;12.566;2022-07-23T14:10:20;11.00;;;3.83;;
49015;SDS011;34830;44.064;12.566;2022-07-23T14:12:47;11.00;;;4.30;;
49015;SDS011;34830;44.064;12.566;2022-07-23T14:15:15;6.10;;;4.03;;
49015;SDS011;34830;44.064;12.566;2022-07-23T14:17:41;5.40;;;3.83;;
49015;SDS011;34830;44.064;12.566;2022-07-23T14:20:10;6.78;;;4.05;;
49015;SDS011;34830;44.064;12.566;2022-07-23T14:22:38;11.85;;;4.00;;
49015;SDS011;34830;44.064;12.566;2022-07-23T14:25:05;12.30;;;4.45;;
49015;SDS011;34830;44.064;12.566;2022-07-23T14:27:32;8.02;;;4.22;;
49015;SDS011;34830;44.064;12.566;2022-07-23T14:29:58;6.72;;;4.53;;
49015;SDS011;34830;44.064;12.566;2022-07-23T14:32:25;11.32;;;4.53;;
49015;SDS011;34830;44.064;12.566;2022-07-23T14:34:51;11.55;;;4.43;;
49015;SDS011;34830;44.064;12.566;2022-07-23T14:37:18;12.80;;;4.85;;
49015;SDS011;34830;44.064;12.566;2022-07-23T14:39:44;12.82;;;4.30;;
49015;SDS011;34830;44.064;12.566;2022-07-23T14:42:11;7.55;;;4.07;;
49015;SDS011;34830;44.064;12.566;2022-07-23T14:44:37;9.68;;;4.43;;
49015;SDS011;34830;44.064;12.566;2022-07-23T14:47:04;6.65;;;4.18;;
49015;SDS011;34830;44.064;12.566;2022-07-23T14:49:31;9.13;;;3.97;;
49015;SDS011;34830;44.064;12.566;2022-07-23T14:51:58;9.93;;;4.07;;
49015;SDS011;34830;44.064;12.566;2022-07-23T14:54:24;10.25;;;4.20;;
49015;SDS011;34830;44.064;12.566;2022-07-23T14:56:52;10.88;;;4.03;;
49015;SDS011;34830;44.064;12.566;2022-07-23T14:59:19;5.85;;;4.10;;
49015;SDS011;34830;44.064;12.566;2022-07-23T15:01:46;6.25;;;4.18;;
49015;SDS011;34830;44.064;12.566;2022-07-23T15:04:12;7.65;;;3.85;;
49015;SDS011;34830;44.064;12.566;2022-07-23T15:06:38;11.85;;;3.90;;
49015;SDS011;34830;44.064;12.566;2022-07-23T15:09:05;14.15;;;4.00;;
49015;SDS011;34830;44.064;12.566;2022-07-23T15:11:31;7.95;;;4.13;;
49015;SDS011;34830;44.064;12.566;2022-07-23T15:14:00;6.35;;;4.13;;
49015;SDS011;34830;44.064;12.566;2022-07-23T15:16:27;10.25;;;4.10;;
49015;SDS011;34830;44.064;12.566;2022-07-23T15:18:53;12.40;;;4.53;;
49015;SDS011;34830;44.064;12.566;2022-07-23T15:21:20;6.82;;;3.75;;
49015;SDS011;34830;44.064;12.566;2022-07-23T15:23:46;9.65;;;4.25;;
49015;SDS011;34830;44.064;12.566;2022-07-23T15:26:12;11.23;;;3.90;;
49015;SDS011;34830;44.064;12.566;2022-07-23T15:28:41;13.15;;;4.53;;
49015;SDS011;34830;44.064;12.566;2022-07-23T15:31:07;10.18;;;3.92;;
49015;SDS011;34830;44.064;12.566;2022-07-23T15:33:33;8.02;;;4.45;;
49015;SDS011;34830;44.064;12.566;2022-07-23T15:36:01;8.30;;;3.40;;
49015;SDS011;34830;44.064;12.566;2022-07-23T15:38:27;8.63;;;4.90;;
49015;SDS011;34830;44.064;12.566;2022-07-23T15:40:56;10.65;;;3.97;;
49015;SDS011;34830;44.064;12.566;2022-07-23T15:43:23;10.73;;;3.92;;
49015;SDS011;34830;44.064;12.566;2022-07-23T15:45:50;15.75;;;4.20;;